Terminal Aerodrome Forecast
Issued by NWS

Home | Current Version | Previous Version | Text Only | Print | Product List | Glossary On
Versions: 1 2 3 4 5 6 7 8 9 10 11 12 13 14 15 16 17 18 19 20 21
000
FTUS46 KMTR 311735
TAFSNS
TAF
KSNS 311735Z 3118/0118 29005KT P6SM SKC
     FM312000 28010G15KT P6SM SKC
     FM010300 29008KT P6SM OVC015
     FM010600 32004KT P6SM OVC015
     FM011100 24004KT P6SM OVC012=

USA.gov is the U.S. government's official web portal to all federal, state and local government web resources and services.